Time,TemperatureF,DewpointF,PressureIn,WindDirection,WindDirectionDegrees,WindSpeedMPH,WindSpeedGustMPH,Humidity,HourlyPrecipIn,Conditions,Clouds,dailyrainin,SoftwareType,DateUTC
2013-08-29 01:38:00,68.5,65.5,29.95,North,0,0.0,0.0,90,0.00,,,-99.99,open2300 version1.11,2013-08-29 05:38:00,
2013-08-29 03:08:00,67.5,64.7,29.94,North,0,0.0,0.0,91,0.00,,,-99.99,open2300 version1.11,2013-08-29 07:08:00,
2013-08-29 03:48:00,67.1,64.3,29.94,North,0,0.0,0.0,91,0.00,,,-99.99,open2300 version1.11,2013-08-29 07:48:00,
2013-08-29 05:33:00,66.4,63.6,29.95,North,0,0.0,0.0,91,0.00,,,-99.99,open2300 version1.11,2013-08-29 09:33:00,
2013-08-29 07:43:00,66.0,63.6,29.99,North,0,0.0,0.0,92,0.00,,,-99.99,open2300 version1.11,2013-08-29 11:43:00,
2013-08-29 08:45:00,68.5,66.1,30.00,North,356,0.0,0.0,92,0.00,,,-99.99,open2300 version1.11,2013-08-29 12:45:00,
2013-08-29 09:20:00,70.3,67.3,30.00,NNW,333,0.0,0.0,90,0.00,,,-99.99,open2300 version1.11,2013-08-29 13:20:00,
2013-08-29 09:35:00,71.4,67.7,30.00,NNW,334,0.0,0.0,88,0.00,,,-99.99,open2300 version1.11,2013-08-29 13:35:00,
2013-08-29 09:40:00,72.0,67.9,30.00,NNW,329,0.0,0.0,87,0.00,,,-99.99,open2300 version1.11,2013-08-29 13:40:00,
2013-08-29 09:55:00,73.0,68.3,30.00,NNW,338,0.0,0.0,85,0.00,,,-99.99,open2300 version1.11,2013-08-29 13:55:00,
2013-08-29 10:00:00,73.2,68.5,30.00,SSW,196,0.0,0.0,85,0.00,,,-99.99,open2300 version1.11,2013-08-29 14:00:00,
2013-08-29 10:05:00,73.6,68.8,30.00,NE,45,0.0,0.0,85,0.00,,,-99.99,open2300 version1.11,2013-08-29 14:05:00,
2013-08-29 10:10:00,73.9,68.8,30.00,North,0,0.0,0.0,84,0.00,,,-99.99,open2300 version1.11,2013-08-29 14:10:00,
2013-08-29 10:15:00,74.1,68.7,30.00,North,0,0.0,0.0,83,0.00,,,-99.99,open2300 version1.11,2013-08-29 14:15:00,
2013-08-29 10:20:00,74.5,69.0,30.01,NNE,13,0.0,0.0,83,0.00,,,-99.99,open2300 version1.11,2013-08-29 14:20:00,
2013-08-29 10:25:00,74.8,69.0,30.00,North,0,0.0,0.0,82,0.00,,,-99.99,open2300 version1.11,2013-08-29 14:25:00,
2013-08-29 10:30:00,75.0,68.9,30.00,North,354,0.0,0.0,81,0.00,,,-99.99,open2300 version1.11,2013-08-29 14:30:00,
2013-08-29 10:35:00,75.4,68.9,30.00,NNW,345,0.0,0.0,80,0.00,,,-99.99,open2300 version1.11,2013-08-29 14:35:00,
2013-08-29 11:15:00,77.5,69.7,30.00,SSW,207,0.0,0.0,77,0.00,,,-99.99,open2300 version1.11,2013-08-29 15:15:00,
2013-08-29 11:20:00,77.7,69.9,30.00,SSE,158,0.8,4.9,77,0.00,,,-99.99,open2300 version1.11,2013-08-29 15:20:00,
2013-08-29 11:25:00,78.1,69.8,30.00,SSE,157,0.2,1.3,76,0.00,,,-99.99,open2300 version1.11,2013-08-29 15:25:00,
2013-08-29 11:30:00,78.1,69.8,30.00,SSE,157,0.3,1.3,76,0.00,,,-99.99,open2300 version1.11,2013-08-29 15:30:00,
2013-08-29 11:35:00,78.4,69.8,30.00,SSE,157,0.2,1.6,75,0.00,,,-99.99,open2300 version1.11,2013-08-29 15:35:00,
2013-08-29 11:40:00,78.6,70.0,30.00,SSE,157,0.0,0.0,75,0.00,,,-99.99,open2300 version1.11,2013-08-29 15:40:00,
2013-08-29 11:45:00,78.6,70.0,30.01,SSE,157,0.0,0.5,75,0.00,,,-99.99,open2300 version1.11,2013-08-29 15:45:00,
2013-08-29 11:50:00,79.0,70.3,30.01,SSE,157,0.1,0.9,75,0.00,,,-99.99,open2300 version1.11,2013-08-29 15:50:00,
2013-08-29 11:55:00,79.2,70.5,30.01,SSE,157,0.2,2.2,75,0.00,,,-99.99,open2300 version1.11,2013-08-29 15:55:00,
2013-08-29 12:00:00,79.3,70.3,30.01,NNE,22,0.1,1.3,74,0.00,,,-99.99,open2300 version1.11,2013-08-29 16:00:00,
2013-08-29 12:05:00,79.3,70.7,30.00,NNE,22,0.1,1.1,75,0.00,,,-99.99,open2300 version1.11,2013-08-29 16:05:00,
2013-08-29 12:10:00,79.5,70.9,30.00,NNE,22,0.0,0.0,75,0.00,,,-99.99,open2300 version1.11,2013-08-29 16:10:00,
2013-08-29 12:15:00,79.5,70.5,30.00,NNE,22,0.2,2.0,74,0.00,,,-99.99,open2300 version1.11,2013-08-29 16:15:00,
2013-08-29 12:20:00,79.9,70.8,30.01,NNE,22,0.1,1.1,74,0.00,,,-99.99,open2300 version1.11,2013-08-29 16:20:00,
2013-08-29 12:25:00,79.9,70.5,30.01,NNE,22,0.1,1.1,73,0.00,,,-99.99,open2300 version1.11,2013-08-29 16:25:00,
2013-08-29 12:30:00,80.2,71.2,30.00,NNE,22,0.0,0.0,74,0.00,,,-99.99,open2300 version1.11,2013-08-29 16:30:00,
2013-08-29 12:35:00,80.4,71.0,30.00,NNE,22,0.0,0.9,73,0.00,,,-99.99,open2300 version1.11,2013-08-29 16:35:00,
2013-08-29 12:40:00,80.4,71.0,30.00,South,180,0.1,0.7,73,0.00,,,-99.99,open2300 version1.11,2013-08-29 16:40:00,
2013-08-29 12:45:00,80.8,71.3,30.00,NE,45,0.1,1.8,73,0.00,,,-99.99,open2300 version1.11,2013-08-29 16:45:00,
2013-08-29 12:50:00,81.1,71.3,30.00,NNE,22,0.0,0.0,72,0.00,,,-99.99,open2300 version1.11,2013-08-29 16:50:00,
2013-08-29 12:55:00,81.1,71.3,30.00,NNE,24,0.3,2.2,72,0.00,,,-99.99,open2300 version1.11,2013-08-29 16:55:00,
2013-08-29 13:00:00,81.5,71.6,30.00,NE,45,0.1,1.6,72,0.00,,,-99.99,open2300 version1.11,2013-08-29 17:00:00,
2013-08-29 13:05:00,82.0,72.1,29.99,NNE,22,0.0,0.0,72,0.00,,,-99.99,open2300 version1.11,2013-08-29 17:05:00,
2013-08-29 13:10:00,82.0,71.7,29.99,NNE,22,0.0,0.0,71,0.00,,,-99.99,open2300 version1.11,2013-08-29 17:10:00,
2013-08-29 13:15:00,81.9,71.9,29.99,NNE,22,0.0,0.0,72,0.00,,,-99.99,open2300 version1.11,2013-08-29 17:15:00,
2013-08-29 13:43:00,83.8,72.1,29.98,North,3,0.0,0.0,68,0.00,,,-99.99,open2300 version1.11,2013-08-29 17:43:00,
2013-08-29 13:50:00,84.2,72.5,29.98,SSE,157,0.0,0.0,68,0.00,,,-99.99,open2300 version1.11,2013-08-29 17:50:00,
2013-08-29 13:55:00,84.6,72.4,29.98,SSE,157,0.0,0.7,67,0.00,,,-99.99,open2300 version1.11,2013-08-29 17:55:00,
2013-08-29 14:00:00,84.7,72.1,29.98,South,173,0.5,3.4,66,0.00,,,-99.99,open2300 version1.11,2013-08-29 18:00:00,
2013-08-29 14:05:00,84.7,72.1,29.99,NNE,32,0.8,2.5,66,0.00,,,-99.99,open2300 version1.11,2013-08-29 18:05:00,
2013-08-29 14:10:00,84.4,71.3,29.99,NE,45,0.0,0.9,65,0.00,,,-99.99,open2300 version1.11,2013-08-29 18:10:00,
2013-08-29 14:15:00,84.0,71.4,29.99,NE,45,0.0,0.7,66,0.00,,,-99.99,open2300 version1.11,2013-08-29 18:15:00,
2013-08-29 14:20:00,83.7,71.1,29.99,NE,45,0.0,0.0,66,0.00,,,-99.99,open2300 version1.11,2013-08-29 18:20:00,
2013-08-29 14:48:00,83.8,70.3,29.98,NE,45,0.0,0.0,64,0.00,,,-99.99,open2300 version1.11,2013-08-29 18:48:00,
2013-08-29 15:50:00,85.1,70.6,29.97,NE,37,0.0,0.0,62,0.00,,,-99.99,open2300 version1.11,2013-08-29 19:50:00,
2013-08-29 15:55:00,85.3,70.8,29.97,SSW,210,0.0,0.0,62,0.00,,,-99.99,open2300 version1.11,2013-08-29 19:55:00,
2013-08-29 16:00:00,85.1,70.6,29.97,North,0,0.0,0.0,62,0.00,,,-99.99,open2300 version1.11,2013-08-29 20:00:00,
2013-08-29 16:05:00,85.3,70.3,29.97,North,0,0.0,0.0,61,0.00,,,-99.99,open2300 version1.11,2013-08-29 20:05:00,
2013-08-29 16:10:00,85.1,69.7,29.97,North,0,0.0,0.0,60,0.00,,,-99.99,open2300 version1.11,2013-08-29 20:10:00,
2013-08-29 16:15:00,84.9,69.0,29.97,North,0,0.0,0.0,59,0.00,,,-99.99,open2300 version1.11,2013-08-29 20:15:00,
2013-08-29 16:20:00,84.7,68.9,29.97,North,0,0.1,1.8,59,0.00,,,-99.99,open2300 version1.11,2013-08-29 20:20:00,
2013-08-29 16:25:00,84.7,69.4,29.96,North,0,0.0,0.0,60,0.00,,,-99.99,open2300 version1.11,2013-08-29 20:25:00,
2013-08-29 16:30:00,84.9,70.0,29.96,North,0,0.0,0.0,61,0.00,,,-99.99,open2300 version1.11,2013-08-29 20:30:00,
2013-08-29 16:35:00,84.7,69.8,29.96,North,0,0.0,0.0,61,0.00,,,-99.99,open2300 version1.11,2013-08-29 20:35:00,
2013-08-29 16:40:00,84.9,70.5,29.96,North,0,0.0,0.0,62,0.00,,,-99.99,open2300 version1.11,2013-08-29 20:40:00,
2013-08-29 16:45:00,84.7,70.3,29.96,North,0,0.0,0.0,62,0.00,,,-99.99,open2300 version1.11,2013-08-29 20:45:00,
2013-08-29 16:50:00,84.6,70.6,29.96,North,0,0.0,0.0,63,0.00,,,-99.99,open2300 version1.11,2013-08-29 20:50:00,
2013-08-29 16:55:00,84.6,70.6,29.96,North,0,0.0,0.0,63,0.00,,,-99.99,open2300 version1.11,2013-08-29 20:55:00,
2013-08-29 17:50:00,82.9,69.4,29.95,NNW,329,0.0,0.0,64,0.00,,,-99.99,open2300 version1.11,2013-08-29 21:50:00,
2013-08-29 17:55:00,82.6,69.5,29.95,SW,230,0.1,0.7,65,0.00,,,-99.99,open2300 version1.11,2013-08-29 21:55:00,
2013-08-29 18:00:00,82.2,69.6,29.96,North,0,0.0,0.0,66,0.00,,,-99.99,open2300 version1.11,2013-08-29 22:00:00,
2013-08-29 18:05:00,82.2,69.6,29.95,North,0,0.0,0.0,66,0.00,,,-99.99,open2300 version1.11,2013-08-29 22:05:00,
2013-08-29 18:10:00,82.0,69.9,29.95,North,0,0.0,0.0,67,0.00,,,-99.99,open2300 version1.11,2013-08-29 22:10:00,
2013-08-29 18:15:00,81.7,69.6,29.95,North,0,0.0,0.0,67,0.00,,,-99.99,open2300 version1.11,2013-08-29 22:15:00,
2013-08-29 18:20:00,81.5,69.4,29.95,North,0,0.0,0.0,67,0.00,,,-99.99,open2300 version1.11,2013-08-29 22:20:00,
2013-08-29 18:25:00,81.3,69.7,29.95,North,0,0.0,0.0,68,0.00,,,-99.99,open2300 version1.11,2013-08-29 22:25:00,
2013-08-29 18:35:00,80.6,69.5,29.95,North,0,0.0,0.0,69,0.00,,,-99.99,open2300 version1.11,2013-08-29 22:35:00,
2013-08-29 18:40:00,80.6,69.5,29.95,North,0,0.0,0.0,69,0.00,,,-99.99,open2300 version1.11,2013-08-29 22:40:00,
2013-08-29 18:45:00,80.4,69.8,29.95,North,0,0.0,0.0,70,0.00,,,-99.99,open2300 version1.11,2013-08-29 22:45:00,
2013-08-29 18:50:00,80.4,69.8,29.94,North,0,0.0,0.0,70,0.00,,,-99.99,open2300 version1.11,2013-08-29 22:50:00,
2013-08-29 18:55:00,80.4,70.2,29.95,North,0,0.0,0.0,71,0.00,,,-99.99,open2300 version1.11,2013-08-29 22:55:00,
2013-08-29 19:00:00,80.4,70.2,29.95,North,0,0.0,0.0,71,0.00,,,-99.99,open2300 version1.11,2013-08-29 23:00:00,
2013-08-29 19:05:00,80.6,70.4,29.95,North,0,0.0,0.0,71,0.00,,,-99.99,open2300 version1.11,2013-08-29 23:05:00,
2013-08-29 19:10:00,80.8,70.5,29.95,North,0,0.0,0.0,71,0.00,,,-99.99,open2300 version1.11,2013-08-29 23:10:00,
2013-08-29 19:15:00,80.8,70.5,29.94,North,0,0.0,0.0,71,0.00,,,-99.99,open2300 version1.11,2013-08-29 23:15:00,
2013-08-29 19:20:00,80.4,70.2,29.94,North,0,0.0,0.0,71,0.00,,,-99.99,open2300 version1.11,2013-08-29 23:20:00,
2013-08-29 19:25:00,80.4,70.6,29.94,North,0,0.0,0.0,72,0.00,,,-99.99,open2300 version1.11,2013-08-29 23:25:00,
2013-08-29 19:30:00,80.4,70.6,29.94,North,0,0.0,0.0,72,0.00,,,-99.99,open2300 version1.11,2013-08-29 23:30:00,
2013-08-29 19:35:00,80.2,70.4,29.95,North,0,0.0,0.0,72,0.00,,,-99.99,open2300 version1.11,2013-08-29 23:35:00,
2013-08-29 19:45:00,79.9,70.5,29.95,North,0,0.0,0.0,73,0.00,,,-99.99,open2300 version1.11,2013-08-29 23:45:00,
2013-08-29 19:50:00,79.7,70.3,29.95,North,0,0.0,0.0,73,0.00,,,-99.99,open2300 version1.11,2013-08-29 23:50:00,
2013-08-29 19:55:00,79.5,70.1,29.95,North,0,0.0,0.0,73,0.00,,,-99.99,open2300 version1.11,2013-08-29 23:55:00,
2013-08-29 20:00:00,79.3,70.3,29.95,North,0,0.0,0.0,74,0.00,,,-99.99,open2300 version1.11,2013-08-30 00:00:00,
2013-08-29 20:05:00,79.2,70.1,29.96,North,0,0.0,0.0,74,0.00,,,-99.99,open2300 version1.11,2013-08-30 00:05:00,
2013-08-29 20:10:00,78.8,69.8,29.96,South,180,0.8,14.1,74,0.00,,,-99.99,open2300 version1.11,2013-08-30 00:10:00,
2013-08-29 20:15:00,78.6,69.6,29.96,SW,225,0.0,0.2,74,0.00,,,-99.99,open2300 version1.11,2013-08-30 00:15:00,
2013-08-29 20:20:00,78.4,69.8,29.96,South,180,1.8,28.4,75,0.00,,,-99.99,open2300 version1.11,2013-08-30 00:20:00,
2013-08-29 20:25:00,78.1,69.5,29.96,WNW,303,0.6,6.9,75,0.00,,,-99.99,open2300 version1.11,2013-08-30 00:25:00,
2013-08-29 20:30:00,77.7,69.1,29.96,North,0,0.0,0.0,75,0.00,,,-99.99,open2300 version1.11,2013-08-30 00:30:00,
2013-08-29 20:35:00,77.5,69.0,29.96,North,0,0.0,0.0,75,0.00,,,-99.99,open2300 version1.11,2013-08-30 00:35:00,
2013-08-29 20:40:00,77.2,69.0,29.96,North,0,0.0,0.0,76,0.00,,,-99.99,open2300 version1.11,2013-08-30 00:40:00,
2013-08-29 20:45:00,76.8,68.7,29.96,SSE,157,0.4,7.2,76,0.00,,,-99.99,open2300 version1.11,2013-08-30 00:45:00,
2013-08-29 20:50:00,76.8,69.0,29.96,WNW,292,0.0,0.0,77,0.00,,,-99.99,open2300 version1.11,2013-08-30 00:50:00,
2013-08-29 21:10:00,75.9,68.6,29.96,NNW,337,0.6,14.1,78,0.00,,,-99.99,open2300 version1.11,2013-08-30 01:10:00,
2013-08-29 21:15:00,75.7,68.4,29.96,North,0,0.0,0.0,78,0.00,,,-99.99,open2300 version1.11,2013-08-30 01:15:00,
2013-08-29 21:30:00,75.4,68.5,29.97,WNW,292,0.0,0.0,79,0.00,,,-99.99,open2300 version1.11,2013-08-30 01:30:00,
2013-08-29 21:40:00,75.0,68.5,29.97,South,180,0.5,10.3,80,0.00,,,-99.99,open2300 version1.11,2013-08-30 01:40:00,
2013-08-29 21:45:00,75.0,68.5,29.97,North,0,0.0,0.0,80,0.00,,,-99.99,open2300 version1.11,2013-08-30 01:45:00,
2013-08-29 21:50:00,74.8,68.7,29.97,South,180,0.0,0.0,81,0.00,,,-99.99,open2300 version1.11,2013-08-30 01:50:00,
2013-08-29 21:55:00,74.8,68.7,29.96,NNW,337,0.0,0.0,81,0.00,,,-99.99,open2300 version1.11,2013-08-30 01:55:00,
2013-08-29 22:00:00,74.8,68.7,29.96,NNW,337,0.0,0.0,81,0.00,,,-99.99,open2300 version1.11,2013-08-30 02:00:00,
2013-08-29 22:05:00,74.5,68.3,29.96,SW,225,0.1,1.6,81,0.00,,,-99.99,open2300 version1.11,2013-08-30 02:05:00,
2013-08-29 22:15:00,74.3,68.2,29.97,SW,225,0.0,0.0,81,0.00,,,-99.99,open2300 version1.11,2013-08-30 02:15:00,
2013-08-29 22:20:00,74.1,68.0,29.96,North,0,0.0,0.0,81,0.00,,,-99.99,open2300 version1.11,2013-08-30 02:20:00,
2013-08-29 22:25:00,73.9,68.1,29.96,NNW,337,0.8,6.9,82,0.00,,,-99.99,open2300 version1.11,2013-08-30 02:25:00,
2013-08-29 22:30:00,73.6,67.8,29.95,North,0,0.0,0.0,82,0.00,,,-99.99,open2300 version1.11,2013-08-30 02:30:00,
2013-08-29 22:45:00,73.2,68.1,29.94,North,0,0.0,0.0,84,0.00,,,-99.99,open2300 version1.11,2013-08-30 02:45:00,
2013-08-29 22:50:00,73.2,68.1,29.94,North,0,0.0,0.0,84,0.00,,,-99.99,open2300 version1.11,2013-08-30 02:50:00,
2013-08-29 22:55:00,73.0,67.9,29.94,North,0,0.0,0.0,84,0.00,,,-99.99,open2300 version1.11,2013-08-30 02:55:00,
2013-08-29 23:00:00,73.0,67.9,29.94,North,0,0.0,0.0,84,0.00,,,-99.99,open2300 version1.11,2013-08-30 03:00:00,
2013-08-29 23:05:00,72.9,67.8,29.94,North,0,0.0,0.0,84,0.00,,,-99.99,open2300 version1.11,2013-08-30 03:05:00,
2013-08-29 23:10:00,72.7,67.6,29.94,North,0,0.0,0.0,84,0.00,,,-99.99,open2300 version1.11,2013-08-30 03:10:00,
2013-08-29 23:15:00,72.5,67.4,29.94,North,0,0.0,0.0,84,0.00,,,-99.99,open2300 version1.11,2013-08-30 03:15:00,
2013-08-29 23:20:00,72.3,67.2,29.94,WNW,292,0.0,0.0,84,0.00,,,-99.99,open2300 version1.11,2013-08-30 03:20:00,
2013-08-29 23:25:00,72.3,67.2,29.94,North,0,0.0,0.0,84,0.00,,,-99.99,open2300 version1.11,2013-08-30 03:25:00,
2013-08-29 23:30:00,72.1,67.4,29.93,North,0,0.0,0.0,85,0.00,,,-99.99,open2300 version1.11,2013-08-30 03:30:00,
2013-08-29 23:35:00,72.1,67.4,29.94,North,0,0.0,0.0,85,0.00,,,-99.99,open2300 version1.11,2013-08-30 03:35:00,
2013-08-29 23:40:00,72.0,67.2,29.93,North,0,0.0,0.0,85,0.00,,,-99.99,open2300 version1.11,2013-08-30 03:40:00,
2013-08-29 23:45:00,72.0,67.2,29.93,North,0,0.0,0.0,85,0.00,,,-99.99,open2300 version1.11,2013-08-30 03:45:00,
2013-08-29 23:50:00,71.8,67.0,29.93,NNW,337,0.0,0.0,85,0.00,,,-99.99,open2300 version1.11,2013-08-30 03:50:00,
2013-08-29 23:55:00,71.8,67.3,29.93,North,0,0.0,0.0,86,0.00,,,-99.99,open2300 version1.11,2013-08-30 03:55:00,